sensor_id;sensor_type;location;lat;lon;timestamp;pressure;altitude;pressure_sealevel;temperature;humidity
14689;BME280;7432;48.728;9.154;2023-03-05T00:01:51;96843.50;;;2.90;76.98
14689;BME280;7432;48.728;9.154;2023-03-05T00:04:18;96834.75;;;2.82;77.72
14689;BME280;7432;48.728;9.154;2023-03-05T00:06:45;96847.19;;;2.86;78.06
14689;BME280;7432;48.728;9.154;2023-03-05T00:09:12;96840.66;;;2.82;78.29
14689;BME280;7432;48.728;9.154;2023-03-05T00:11:39;96848.22;;;2.84;77.93
14689;BME280;7432;48.728;9.154;2023-03-05T00:14:05;96849.81;;;2.85;78.14
14689;BME280;7432;48.728;9.154;2023-03-05T00:16:32;96847.19;;;2.86;78.07
14689;BME280;7432;48.728;9.154;2023-03-05T00:18:59;96847.47;;;2.82;78.53
14689;BME280;7432;48.728;9.154;2023-03-05T00:21:28;96847.59;;;2.80;78.54
14689;BME280;7432;48.728;9.154;2023-03-05T00:23:56;96840.59;;;2.84;78.55
14689;BME280;7432;48.728;9.154;2023-03-05T00:26:25;96841.97;;;2.88;77.93
14689;BME280;7432;48.728;9.154;2023-03-05T00:28:51;96842.78;;;2.88;78.18
14689;BME280;7432;48.728;9.154;2023-03-05T00:31:19;96842.88;;;2.87;78.88
14689;BME280;7432;48.728;9.154;2023-03-05T00:33:50;96832.13;;;2.83;77.89
14689;BME280;7432;48.728;9.154;2023-03-05T00:36:17;96829.47;;;2.85;78.35
14689;BME280;7432;48.728;9.154;2023-03-05T00:38:44;96834.69;;;2.83;78.01
14689;BME280;7432;48.728;9.154;2023-03-05T00:41:11;96833.53;;;2.87;78.52
14689;BME280;7432;48.728;9.154;2023-03-05T00:43:37;96833.25;;;2.92;78.01
14689;BME280;7432;48.728;9.154;2023-03-05T00:46:04;96831.41;;;2.94;77.82
14689;BME280;7432;48.728;9.154;2023-03-05T00:48:30;96827.75;;;2.85;78.18
14689;BME280;7432;48.728;9.154;2023-03-05T00:50:56;96826.84;;;2.86;78.87
14689;BME280;7432;48.728;9.154;2023-03-05T00:53:23;96831.00;;;2.87;79.32
14689;BME280;7432;48.728;9.154;2023-03-05T00:55:50;96821.97;;;2.83;79.65
14689;BME280;7432;48.728;9.154;2023-03-05T00:58:17;96827.13;;;2.82;79.14
14689;BME280;7432;48.728;9.154;2023-03-05T01:00:43;96817.56;;;2.85;78.40
14689;BME280;7432;48.728;9.154;2023-03-05T01:03:09;96808.00;;;2.89;79.04
14689;BME280;7432;48.728;9.154;2023-03-05T01:05:36;96816.34;;;2.91;79.04
14689;BME280;7432;48.728;9.154;2023-03-05T01:08:02;96813.19;;;2.87;78.97
14689;BME280;7432;48.728;9.154;2023-03-05T01:10:29;96812.97;;;2.90;78.78
14689;BME280;7432;48.728;9.154;2023-03-05T01:12:57;96807.47;;;2.96;79.41
14689;BME280;7432;48.728;9.154;2023-03-05T01:15:24;96809.31;;;2.94;79.80
14689;BME280;7432;48.728;9.154;2023-03-05T01:17:50;96799.91;;;2.84;79.82
14689;BME280;7432;48.728;9.154;2023-03-05T01:20:19;96804.91;;;2.73;79.06
14689;BME280;7432;48.728;9.154;2023-03-05T01:22:45;96797.56;;;2.81;80.05
14689;BME280;7432;48.728;9.154;2023-03-05T01:25:13;96790.91;;;2.91;79.02
14689;BME280;7432;48.728;9.154;2023-03-05T01:27:39;96793.47;;;2.91;79.45
14689;BME280;7432;48.728;9.154;2023-03-05T01:30:09;96793.66;;;2.88;79.40
14689;BME280;7432;48.728;9.154;2023-03-05T01:32:35;96787.19;;;2.84;78.63
14689;BME280;7432;48.728;9.154;2023-03-05T01:35:03;96787.59;;;2.78;78.49
14689;BME280;7432;48.728;9.154;2023-03-05T01:37:30;96787.38;;;2.81;79.64
14689;BME280;7432;48.728;9.154;2023-03-05T01:39:56;96784.63;;;2.84;78.95
14689;BME280;7432;48.728;9.154;2023-03-05T01:42:23;96784.72;;;2.82;79.45
14689;BME280;7432;48.728;9.154;2023-03-05T01:45:00;96780.66;;;2.80;79.72
14689;BME280;7432;48.728;9.154;2023-03-05T01:47:28;96774.56;;;2.82;79.90
14689;BME280;7432;48.728;9.154;2023-03-05T01:49:55;96772.56;;;2.75;79.68
14689;BME280;7432;48.728;9.154;2023-03-05T01:52:22;96769.59;;;2.81;79.35
14689;BME280;7432;48.728;9.154;2023-03-05T01:54:53;96763.28;;;2.86;79.63
14689;BME280;7432;48.728;9.154;2023-03-05T01:57:23;96765.09;;;2.84;79.41
14689;BME280;7432;48.728;9.154;2023-03-05T01:59:54;96759.22;;;2.84;78.61
14689;BME280;7432;48.728;9.154;2023-03-05T02:02:21;96752.38;;;2.84;80.08
14689;BME280;7432;48.728;9.154;2023-03-05T02:04:52;96750.56;;;2.86;80.22
14689;BME280;7432;48.728;9.154;2023-03-05T02:07:20;96745.56;;;2.85;79.13
14689;BME280;7432;48.728;9.154;2023-03-05T02:09:47;96747.00;;;2.76;80.50
14689;BME280;7432;48.728;9.154;2023-03-05T02:12:14;96745.78;;;2.82;79.26
14689;BME280;7432;48.728;9.154;2023-03-05T02:14:44;96739.66;;;2.84;79.73
14689;BME280;7432;48.728;9.154;2023-03-05T02:17:12;96738.81;;;2.73;80.55
14689;BME280;7432;48.728;9.154;2023-03-05T02:19:47;96736.25;;;2.73;80.25
14689;BME280;7432;48.728;9.154;2023-03-05T02:22:16;96730.16;;;2.75;80.59
14689;BME280;7432;48.728;9.154;2023-03-05T02:24:42;96735.31;;;2.74;80.91
14689;BME280;7432;48.728;9.154;2023-03-05T02:27:09;96728.44;;;2.76;80.82
14689;BME280;7432;48.728;9.154;2023-03-05T02:29:39;96728.78;;;2.82;81.97
14689;BME280;7432;48.728;9.154;2023-03-05T02:32:07;96728.56;;;2.85;81.02
14689;BME280;7432;48.728;9.154;2023-03-05T02:34:33;96718.25;;;2.76;81.83
14689;BME280;7432;48.728;9.154;2023-03-05T02:37:00;96731.00;;;2.87;81.30
14689;BME280;7432;48.728;9.154;2023-03-05T02:39:30;96723.69;;;2.82;80.90
14689;BME280;7432;48.728;9.154;2023-03-05T02:41:56;96718.28;;;2.87;81.64
14689;BME280;7432;48.728;9.154;2023-03-05T02:44:23;96717.44;;;2.75;81.94
14689;BME280;7432;48.728;9.154;2023-03-05T02:46:49;96717.22;;;2.78;82.54
14689;BME280;7432;48.728;9.154;2023-03-05T02:49:15;96713.19;;;2.87;83.03
14689;BME280;7432;48.728;9.154;2023-03-05T02:51:42;96712.41;;;2.86;83.18
14689;BME280;7432;48.728;9.154;2023-03-05T02:54:08;96708.78;;;2.78;83.65
14689;BME280;7432;48.728;9.154;2023-03-05T02:56:36;96706.94;;;2.80;83.71
14689;BME280;7432;48.728;9.154;2023-03-05T02:59:03;96713.75;;;2.79;84.14
14689;BME280;7432;48.728;9.154;2023-03-05T03:01:30;96712.72;;;2.82;83.68
14689;BME280;7432;48.728;9.154;2023-03-05T03:03:56;96702.53;;;2.82;83.48
14689;BME280;7432;48.728;9.154;2023-03-05T03:06:23;96698.88;;;2.86;84.07
14689;BME280;7432;48.728;9.154;2023-03-05T03:08:49;96692.97;;;2.85;84.03
14689;BME280;7432;48.728;9.154;2023-03-05T03:11:16;96689.94;;;2.80;83.29
14689;BME280;7432;48.728;9.154;2023-03-05T03:13:44;96692.16;;;2.85;82.99
14689;BME280;7432;48.728;9.154;2023-03-05T03:16:12;96689.03;;;2.81;84.24
14689;BME280;7432;48.728;9.154;2023-03-05T03:18:38;96694.00;;;2.83;83.79
14689;BME280;7432;48.728;9.154;2023-03-05T03:21:05;96691.94;;;2.88;84.18
14689;BME280;7432;48.728;9.154;2023-03-05T03:23:32;96683.16;;;2.81;83.56
14689;BME280;7432;48.728;9.154;2023-03-05T03:25:59;96678.28;;;2.78;83.94
14689;BME280;7432;48.728;9.154;2023-03-05T03:28:25;96691.81;;;2.78;84.38
14689;BME280;7432;48.728;9.154;2023-03-05T03:30:53;96682.31;;;2.80;84.55
14689;BME280;7432;48.728;9.154;2023-03-05T03:33:19;96681.09;;;2.86;84.43
14689;BME280;7432;48.728;9.154;2023-03-05T03:35:45;96680.59;;;2.81;84.38
14689;BME280;7432;48.728;9.154;2023-03-05T03:38:12;96683.41;;;2.89;85.89
14689;BME280;7432;48.728;9.154;2023-03-05T03:40:38;96677.59;;;2.87;85.81
14689;BME280;7432;48.728;9.154;2023-03-05T03:43:06;96668.25;;;2.87;86.19
14689;BME280;7432;48.728;9.154;2023-03-05T03:45:32;96666.19;;;2.92;86.57
14689;BME280;7432;48.728;9.154;2023-03-05T03:48:00;96673.28;;;3.00;85.73
14689;BME280;7432;48.728;9.154;2023-03-05T03:50:27;96660.41;;;2.90;85.85
14689;BME280;7432;48.728;9.154;2023-03-05T03:52:53;96666.84;;;2.83;87.80
14689;BME280;7432;48.728;9.154;2023-03-05T03:55:19;96653.81;;;2.88;86.70
14689;BME280;7432;48.728;9.154;2023-03-05T03:57:46;96659.44;;;2.80;88.10
14689;BME280;7432;48.728;9.154;2023-03-05T04:00:13;96655.19;;;2.81;88.50
14689;BME280;7432;48.728;9.154;2023-03-05T04:02:39;96654.44;;;2.79;89.27
14689;BME280;7432;48.728;9.154;2023-03-05T04:05:08;96654.44;;;2.79;88.60
14689;BME280;7432;48.728;9.154;2023-03-05T04:07:34;96649.06;;;2.83;88.62
14689;BME280;7432;48.728;9.154;2023-03-05T04:10:00;96651.13;;;2.78;88.72
14689;BME280;7432;48.728;9.154;2023-03-05T04:12:27;96641.53;;;2.82;87.69
14689;BME280;7432;48.728;9.154;2023-03-05T04:14:53;96641.84;;;2.77;87.91
14689;BME280;7432;48.728;9.154;2023-03-05T04:17:19;96652.16;;;2.76;89.09
14689;BME280;7432;48.728;9.154;2023-03-05T04:19:46;96647.16;;;2.74;88.80
14689;BME280;7432;48.728;9.154;2023-03-05T04:22:15;96647.44;;;2.82;89.25
14689;BME280;7432;48.728;9.154;2023-03-05T04:24:42;96643.97;;;2.83;88.63
14689;BME280;7432;48.728;9.154;2023-03-05T04:27:09;96639.59;;;2.85;89.12
14689;BME280;7432;48.728;9.154;2023-03-05T04:29:36;96639.19;;;2.79;88.73
14689;BME280;7432;48.728;9.154;2023-03-05T04:32:03;96641.44;;;2.83;88.24
14689;BME280;7432;48.728;9.154;2023-03-05T04:34:29;96632.88;;;2.84;89.78
14689;BME280;7432;48.728;9.154;2023-03-05T04:36:57;96640.00;;;2.79;88.91
14689;BME280;7432;48.728;9.154;2023-03-05T04:39:24;96629.16;;;2.77;89.15
14689;BME280;7432;48.728;9.154;2023-03-05T04:41:51;96627.50;;;2.76;90.43
14689;BME280;7432;48.728;9.154;2023-03-05T04:44:17;96632.50;;;2.78;90.43
14689;BME280;7432;48.728;9.154;2023-03-05T04:46:43;96630.66;;;2.80;90.46
14689;BME280;7432;48.728;9.154;2023-03-05T04:49:10;96631.94;;;2.85;90.07
14689;BME280;7432;48.728;9.154;2023-03-05T04:51:36;96627.09;;;2.82;88.92
14689;BME280;7432;48.728;9.154;2023-03-05T04:54:03;96623.63;;;2.83;89.69
14689;BME280;7432;48.728;9.154;2023-03-05T04:56:30;96621.78;;;2.85;88.70
14689;BME280;7432;48.728;9.154;2023-03-05T04:58:58;96624.31;;;2.85;89.37
14689;BME280;7432;48.728;9.154;2023-03-05T05:01:24;96629.88;;;2.90;88.39
14689;BME280;7432;48.728;9.154;2023-03-05T05:03:51;96620.31;;;2.94;88.28
14689;BME280;7432;48.728;9.154;2023-03-05T05:06:17;96616.16;;;2.93;88.63
14689;BME280;7432;48.728;9.154;2023-03-05T05:08:43;96622.03;;;2.93;88.43
14689;BME280;7432;48.728;9.154;2023-03-05T05:11:12;96616.88;;;2.95;87.64
14689;BME280;7432;48.728;9.154;2023-03-05T05:13:40;96611.06;;;2.93;88.02
14689;BME280;7432;48.728;9.154;2023-03-05T05:16:07;96610.63;;;2.99;88.06
14689;BME280;7432;48.728;9.154;2023-03-05T05:18:33;96610.63;;;2.99;88.39
14689;BME280;7432;48.728;9.154;2023-03-05T05:21:00;96613.16;;;2.99;87.46
14689;BME280;7432;48.728;9.154;2023-03-05T05:23:26;96605.53;;;2.99;88.31
14689;BME280;7432;48.728;9.154;2023-03-05T05:25:56;96622.31;;;3.02;87.75
14689;BME280;7432;48.728;9.154;2023-03-05T05:28:23;96615.84;;;2.97;87.81
14689;BME280;7432;48.728;9.154;2023-03-05T05:30:51;96616.06;;;2.94;88.58
14689;BME280;7432;48.728;9.154;2023-03-05T05:33:17;96616.47;;;2.88;87.49
14689;BME280;7432;48.728;9.154;2023-03-05T05:35:43;96614.16;;;2.85;87.25
14689;BME280;7432;48.728;9.154;2023-03-05T05:38:10;96612.66;;;2.83;87.52
14689;BME280;7432;48.728;9.154;2023-03-05T05:40:36;96613.47;;;2.83;88.61
14689;BME280;7432;48.728;9.154;2023-03-05T05:43:02;96616.69;;;2.85;89.00
14689;BME280;7432;48.728;9.154;2023-03-05T05:45:29;96618.00;;;2.91;88.93
14689;BME280;7432;48.728;9.154;2023-03-05T05:47:57;96615.06;;;2.84;87.37
14689;BME280;7432;48.728;9.154;2023-03-05T05:50:23;96615.41;;;2.80;87.71
14689;BME280;7432;48.728;9.154;2023-03-05T05:52:51;96615.41;;;2.80;87.09
14689;BME280;7432;48.728;9.154;2023-03-05T05:55:17;96611.94;;;2.81;88.38
14689;BME280;7432;48.728;9.154;2023-03-05T05:57:44;96609.97;;;2.84;87.48
14689;BME280;7432;48.728;9.154;2023-03-05T06:00:12;96616.47;;;2.88;87.23
14689;BME280;7432;48.728;9.154;2023-03-05T06:02:40;96604.41;;;2.79;87.22
14689;BME280;7432;48.728;9.154;2023-03-05T06:05:11;96613.91;;;2.77;88.51
14689;BME280;7432;48.728;9.154;2023-03-05T06:07:39;96612.78;;;2.81;87.22
14689;BME280;7432;48.728;9.154;2023-03-05T06:10:07;96608.69;;;2.79;88.02
14689;BME280;7432;48.728;9.154;2023-03-05T06:12:34;96609.63;;;2.78;87.38
14689;BME280;7432;48.728;9.154;2023-03-05T06:15:00;96613.91;;;2.77;87.45
14689;BME280;7432;48.728;9.154;2023-03-05T06:17:27;96603.13;;;2.74;87.42
14689;BME280;7432;48.728;9.154;2023-03-05T06:19:53;96608.38;;;2.83;87.43
14689;BME280;7432;48.728;9.154;2023-03-05T06:22:21;96607.34;;;2.86;87.17
14689;BME280;7432;48.728;9.154;2023-03-05T06:24:48;96607.34;;;2.86;86.96
14689;BME280;7432;48.728;9.154;2023-03-05T06:27:15;96612.91;;;2.91;87.25
14689;BME280;7432;48.728;9.154;2023-03-05T06:29:41;96608.25;;;2.85;87.22
14689;BME280;7432;48.728;9.154;2023-03-05T06:32:08;96609.53;;;2.90;87.93
14689;BME280;7432;48.728;9.154;2023-03-05T06:34:34;96605.06;;;2.94;87.50
14689;BME280;7432;48.728;9.154;2023-03-05T06:37:01;96606.13;;;3.03;86.56
14689;BME280;7432;48.728;9.154;2023-03-05T06:39:28;96608.34;;;3.07;86.88
14689;BME280;7432;48.728;9.154;2023-03-05T06:41:56;96597.56;;;3.04;86.32
14689;BME280;7432;48.728;9.154;2023-03-05T06:44:23;96603.25;;;3.07;86.41
14689;BME280;7432;48.728;9.154;2023-03-05T06:46:49;96596.22;;;3.11;87.21
14689;BME280;7432;48.728;9.154;2023-03-05T06:49:16;96601.66;;;3.17;84.88
14689;BME280;7432;48.728;9.154;2023-03-05T06:51:42;96603.03;;;3.10;84.94
14689;BME280;7432;48.728;9.154;2023-03-05T06:54:11;96603.03;;;3.10;86.25
14689;BME280;7432;48.728;9.154;2023-03-05T06:56:41;96607.06;;;3.13;85.49
14689;BME280;7432;48.728;9.154;2023-03-05T06:59:08;96592.50;;;3.15;86.13
14689;BME280;7432;48.728;9.154;2023-03-05T07:01:35;96591.97;;;3.22;86.18
14689;BME280;7432;48.728;9.154;2023-03-05T07:04:02;96597.16;;;3.21;86.06
14689;BME280;7432;48.728;9.154;2023-03-05T07:06:31;96592.75;;;3.23;85.77
14689;BME280;7432;48.728;9.154;2023-03-05T07:08:58;96590.72;;;3.28;86.08
14689;BME280;7432;48.728;9.154;2023-03-05T07:11:26;96590.72;;;3.28;85.99
14689;BME280;7432;48.728;9.154;2023-03-05T07:13:54;96593.81;;;3.31;85.74
14689;BME280;7432;48.728;9.154;2023-03-05T07:16:22;96602.72;;;3.37;84.70
14689;BME280;7432;48.728;9.154;2023-03-05T07:18:49;96579.13;;;3.35;84.80
14689;BME280;7432;48.728;9.154;2023-03-05T07:21:18;96591.28;;;3.42;83.55
14689;BME280;7432;48.728;9.154;2023-03-05T07:23:44;96600.44;;;3.45;83.71
14689;BME280;7432;48.728;9.154;2023-03-05T07:26:11;96593.50;;;3.47;84.38
14689;BME280;7432;48.728;9.154;2023-03-05T07:28:38;96582.16;;;3.51;83.83
14689;BME280;7432;48.728;9.154;2023-03-05T07:31:07;96584.25;;;3.57;84.01
14689;BME280;7432;48.728;9.154;2023-03-05T07:33:34;96579.63;;;3.62;83.30
14689;BME280;7432;48.728;9.154;2023-03-05T07:36:01;96585.63;;;3.61;83.14
14689;BME280;7432;48.728;9.154;2023-03-05T07:38:28;96583.66;;;3.65;83.98
14689;BME280;7432;48.728;9.154;2023-03-05T07:40:54;96581.94;;;3.65;83.72
14689;BME280;7432;48.728;9.154;2023-03-05T07:43:21;96578.00;;;3.72;82.67
14689;BME280;7432;48.728;9.154;2023-03-05T07:45:47;96573.63;;;3.74;81.84
14689;BME280;7432;48.728;9.154;2023-03-05T07:48:16;96580.44;;;3.74;82.69
14689;BME280;7432;48.728;9.154;2023-03-05T07:50:45;96575.91;;;3.77;81.80
14689;BME280;7432;48.728;9.154;2023-03-05T07:53:11;96575.81;;;3.79;82.22
14689;BME280;7432;48.728;9.154;2023-03-05T07:55:41;96581.34;;;3.84;81.32
14689;BME280;7432;48.728;9.154;2023-03-05T07:58:07;96581.34;;;3.84;81.46
14689;BME280;7432;48.728;9.154;2023-03-05T08:00:34;96577.53;;;3.89;80.48
14689;BME280;7432;48.728;9.154;2023-03-05T08:03:00;96582.28;;;3.83;79.66
14689;BME280;7432;48.728;9.154;2023-03-05T08:05:28;96579.25;;;3.89;80.38
14689;BME280;7432;48.728;9.154;2023-03-05T08:07:54;96586.44;;;3.95;80.47
14689;BME280;7432;48.728;9.154;2023-03-05T08:10:21;96574.16;;;4.00;80.73
14689;BME280;7432;48.728;9.154;2023-03-05T08:12:47;96577.88;;;4.07;79.04
14689;BME280;7432;48.728;9.154;2023-03-05T08:15:13;96581.09;;;4.09;78.77
14689;BME280;7432;48.728;9.154;2023-03-05T08:17:40;96584.13;;;4.03;80.41
14689;BME280;7432;48.728;9.154;2023-03-05T08:20:07;96578.78;;;4.06;79.99
14689;BME280;7432;48.728;9.154;2023-03-05T08:22:36;96578.78;;;4.17;79.42
14689;BME280;7432;48.728;9.154;2023-03-05T08:25:04;96578.53;;;4.20;79.02
14689;BME280;7432;48.728;9.154;2023-03-05T08:27:31;96582.59;;;4.23;79.01
14689;BME280;7432;48.728;9.154;2023-03-05T08:29:59;96580.72;;;4.25;77.83
14689;BME280;7432;48.728;9.154;2023-03-05T08:32:25;96571.56;;;4.22;78.59
14689;BME280;7432;48.728;9.154;2023-03-05T08:34:54;96570.97;;;4.30;78.96
14689;BME280;7432;48.728;9.154;2023-03-05T08:37:22;96569.34;;;4.40;78.05
14689;BME280;7432;48.728;9.154;2023-03-05T08:39:50;96564.94;;;4.42;77.46
14689;BME280;7432;48.728;9.154;2023-03-05T08:42:16;96569.91;;;4.43;76.81
14689;BME280;7432;48.728;9.154;2023-03-05T08:44:43;96569.41;;;4.49;76.80
14689;BME280;7432;48.728;9.154;2023-03-05T08:47:09;96565.78;;;4.63;76.38
14689;BME280;7432;48.728;9.154;2023-03-05T08:49:36;96549.59;;;4.53;75.90
14689;BME280;7432;48.728;9.154;2023-03-05T08:52:02;96579.06;;;4.77;76.46
14689;BME280;7432;48.728;9.154;2023-03-05T08:54:29;96568.34;;;4.84;76.03
14689;BME280;7432;48.728;9.154;2023-03-05T08:56:57;96564.50;;;4.89;75.17
14689;BME280;7432;48.728;9.154;2023-03-05T08:59:23;96569.28;;;4.83;73.37
14689;BME280;7432;48.728;9.154;2023-03-05T09:01:49;96563.09;;;4.96;72.49
14689;BME280;7432;48.728;9.154;2023-03-05T09:04:16;96557.31;;;4.94;71.83
14689;BME280;7432;48.728;9.154;2023-03-05T09:06:42;96558.91;;;4.95;71.60
14689;BME280;7432;48.728;9.154;2023-03-05T09:09:09;96557.28;;;5.15;72.77
14689;BME280;7432;48.728;9.154;2023-03-05T09:11:36;96555.34;;;5.28;71.72
14689;BME280;7432;48.728;9.154;2023-03-05T09:14:05;96555.38;;;5.07;71.06
14689;BME280;7432;48.728;9.154;2023-03-05T09:16:32;96557.81;;;5.39;71.19
14689;BME280;7432;48.728;9.154;2023-03-05T09:19:00;96554.53;;;5.48;70.57
14689;BME280;7432;48.728;9.154;2023-03-05T09:21:26;96555.94;;;5.62;70.29
14689;BME280;7432;48.728;9.154;2023-03-05T09:23:53;96547.63;;;5.69;70.55
14689;BME280;7432;48.728;9.154;2023-03-05T09:26:24;96538.06;;;5.71;70.21
14689;BME280;7432;48.728;9.154;2023-03-05T09:28:50;96553.19;;;5.84;69.47
14689;BME280;7432;48.728;9.154;2023-03-05T09:31:18;96541.50;;;5.81;68.61
14689;BME280;7432;48.728;9.154;2023-03-05T09:33:46;96534.94;;;5.88;68.99
14689;BME280;7432;48.728;9.154;2023-03-05T09:36:16;96535.31;;;5.84;68.38
14689;BME280;7432;48.728;9.154;2023-03-05T09:38:43;96536.75;;;5.77;68.84
14689;BME280;7432;48.728;9.154;2023-03-05T09:41:15;96537.19;;;5.82;69.30
14689;BME280;7432;48.728;9.154;2023-03-05T09:43:48;96534.13;;;5.88;69.02
14689;BME280;7432;48.728;9.154;2023-03-05T09:46:29;96530.66;;;5.68;68.13
14689;BME280;7432;48.728;9.154;2023-03-05T09:49:01;96531.94;;;5.83;67.23
14689;BME280;7432;48.728;9.154;2023-03-05T09:51:35;96529.56;;;5.91;67.29
14689;BME280;7432;48.728;9.154;2023-03-05T09:54:09;96528.09;;;5.89;67.92
14689;BME280;7432;48.728;9.154;2023-03-05T09:56:39;96528.50;;;5.94;67.45
14689;BME280;7432;48.728;9.154;2023-03-05T09:59:16;96525.03;;;5.74;67.61
14689;BME280;7432;48.728;9.154;2023-03-05T10:01:47;96524.34;;;5.63;66.60
14689;BME280;7432;48.728;9.154;2023-03-05T10:04:18;96515.78;;;5.73;67.60
14689;BME280;7432;48.728;9.154;2023-03-05T10:06:49;96510.78;;;5.72;67.17
14689;BME280;7432;48.728;9.154;2023-03-05T10:09:38;96514.97;;;5.82;66.85
14689;BME280;7432;48.728;9.154;2023-03-05T10:12:13;96509.84;;;5.73;67.67
14689;BME280;7432;48.728;9.154;2023-03-05T10:14:43;96513.69;;;5.88;67.16
14689;BME280;7432;48.728;9.154;2023-03-05T10:17:26;96508.47;;;5.89;67.19
14689;BME280;7432;48.728;9.154;2023-03-05T10:23:04;96518.53;;;5.91;67.41
14689;BME280;7432;48.728;9.154;2023-03-05T10:25:52;96506.78;;;5.79;67.09
14689;BME280;7432;48.728;9.154;2023-03-05T10:28:22;96504.09;;;5.80;67.11
14689;BME280;7432;48.728;9.154;2023-03-05T10:31:06;96508.53;;;5.78;66.52
14689;BME280;7432;48.728;9.154;2023-03-05T10:33:42;96501.78;;;5.68;67.57
14689;BME280;7432;48.728;9.154;2023-03-05T10:39:45;96498.63;;;5.55;67.58
14689;BME280;7432;48.728;9.154;2023-03-05T10:42:24;96488.16;;;5.58;68.54
14689;BME280;7432;48.728;9.154;2023-03-05T10:44:55;96482.63;;;5.53;68.27
14689;BME280;7432;48.728;9.154;2023-03-05T10:47:25;96487.88;;;5.51;68.31
14689;BME280;7432;48.728;9.154;2023-03-05T10:49:55;96481.03;;;5.52;68.89
14689;BME280;7432;48.728;9.154;2023-03-05T10:52:27;96481.34;;;5.68;69.16
14689;BME280;7432;48.728;9.154;2023-03-05T10:54:54;96478.22;;;5.64;68.29
14689;BME280;7432;48.728;9.154;2023-03-05T10:57:22;96478.53;;;5.71;67.14
14689;BME280;7432;48.728;9.154;2023-03-05T10:59:51;96477.63;;;5.81;67.49
14689;BME280;7432;48.728;9.154;2023-03-05T11:02:19;96475.88;;;5.82;65.65
14689;BME280;7432;48.728;9.154;2023-03-05T11:04:46;96474.47;;;5.68;66.68
14689;BME280;7432;48.728;9.154;2023-03-05T11:07:35;96462.91;;;5.64;67.17
14689;BME280;7432;48.728;9.154;2023-03-05T11:10:05;96461.66;;;5.49;67.29
14689;BME280;7432;48.728;9.154;2023-03-05T11:12:37;96463.25;;;5.41;67.11
14689;BME280;7432;48.728;9.154;2023-03-05T11:15:26;96455.34;;;5.44;67.29
14689;BME280;7432;48.728;9.154;2023-03-05T11:18:06;96456.56;;;5.49;68.15
14689;BME280;7432;48.728;9.154;2023-03-05T11:20:33;96449.31;;;5.54;67.44
14689;BME280;7432;48.728;9.154;2023-03-05T11:23:09;96450.13;;;5.64;67.23
14689;BME280;7432;48.728;9.154;2023-03-05T11:25:53;96453.63;;;5.63;67.74
14689;BME280;7432;48.728;9.154;2023-03-05T11:28:23;96444.47;;;5.51;67.92
14689;BME280;7432;48.728;9.154;2023-03-05T11:30:59;96450.53;;;5.60;68.32
14689;BME280;7432;48.728;9.154;2023-03-05T11:33:27;96447.16;;;5.59;67.50
14689;BME280;7432;48.728;9.154;2023-03-05T11:36:20;96441.75;;;5.53;67.57
14689;BME280;7432;48.728;9.154;2023-03-05T11:38:53;96438.94;;;5.56;67.30
14689;BME280;7432;48.728;9.154;2023-03-05T11:41:24;96428.34;;;5.60;67.09
14689;BME280;7432;48.728;9.154;2023-03-05T11:43:52;96428.63;;;5.67;66.79
14689;BME280;7432;48.728;9.154;2023-03-05T11:46:20;96430.31;;;5.47;66.50
14689;BME280;7432;48.728;9.154;2023-03-05T11:48:47;96419.47;;;5.64;67.21
14689;BME280;7432;48.728;9.154;2023-03-05T11:51:17;96422.84;;;5.65;65.20
14689;BME280;7432;48.728;9.154;2023-03-05T11:53:47;96426.59;;;5.51;66.91
14689;BME280;7432;48.728;9.154;2023-03-05T11:56:19;96420.63;;;5.41;68.35
14689;BME280;7432;48.728;9.154;2023-03-05T11:58:49;96421.94;;;5.26;69.35
14689;BME280;7432;48.728;9.154;2023-03-05T12:01:19;96408.19;;;5.08;70.04
14689;BME280;7432;48.728;9.154;2023-03-05T12:03:46;96415.13;;;5.06;70.97
14689;BME280;7432;48.728;9.154;2023-03-05T12:06:17;96395.94;;;4.81;71.04
14689;BME280;7432;48.728;9.154;2023-03-05T12:08:48;96398.66;;;4.89;71.62
14689;BME280;7432;48.728;9.154;2023-03-05T12:11:20;96402.66;;;4.72;71.66
14689;BME280;7432;48.728;9.154;2023-03-05T12:13:51;96402.94;;;4.79;71.99
14689;BME280;7432;48.728;9.154;2023-03-05T12:16:27;96394.03;;;4.94;71.92
14689;BME280;7432;48.728;9.154;2023-03-05T12:19:26;96392.41;;;5.03;71.28
14689;BME280;7432;48.728;9.154;2023-03-05T12:21:57;96390.25;;;4.98;71.20
14689;BME280;7432;48.728;9.154;2023-03-05T12:24:35;96389.63;;;5.06;72.01
14689;BME280;7432;48.728;9.154;2023-03-05T12:27:13;96379.84;;;5.11;71.44
14689;BME280;7432;48.728;9.154;2023-03-05T12:29:46;96379.22;;;5.28;70.50
14689;BME280;7432;48.728;9.154;2023-03-05T12:35:24;96368.38;;;4.96;71.05
14689;BME280;7432;48.728;9.154;2023-03-05T12:38:02;96367.47;;;5.06;70.83
14689;BME280;7432;48.728;9.154;2023-03-05T12:40:32;96362.00;;;5.20;70.61
14689;BME280;7432;48.728;9.154;2023-03-05T12:43:00;96362.25;;;5.17;70.26
14689;BME280;7432;48.728;9.154;2023-03-05T12:45:34;96354.34;;;5.11;70.72
14689;BME280;7432;48.728;9.154;2023-03-05T12:51:04;96354.03;;;5.04;70.65
14689;BME280;7432;48.728;9.154;2023-03-05T12:53:30;96344.75;;;5.03;69.74
14689;BME280;7432;48.728;9.154;2023-03-05T12:56:01;96342.44;;;5.00;70.33
14689;BME280;7432;48.728;9.154;2023-03-05T12:58:37;96346.94;;;5.08;69.96
14689;BME280;7432;48.728;9.154;2023-03-05T13:01:15;96346.13;;;5.17;70.31
14689;BME280;7432;48.728;9.154;2023-03-05T13:03:48;96341.31;;;5.23;68.83
14689;BME280;7432;48.728;9.154;2023-03-05T13:06:26;96339.19;;;5.28;68.74
14689;BME280;7432;48.728;9.154;2023-03-05T13:08:58;96334.59;;;5.22;69.03
14689;BME280;7432;48.728;9.154;2023-03-05T13:11:26;96331.94;;;5.24;68.97
14689;BME280;7432;48.728;9.154;2023-03-05T13:13:55;96335.16;;;5.26;68.39
14689;BME280;7432;48.728;9.154;2023-03-05T13:16:24;96330.44;;;5.21;68.45
14689;BME280;7432;48.728;9.154;2023-03-05T13:18:52;96328.84;;;5.30;68.65
14689;BME280;7432;48.728;9.154;2023-03-05T13:21:23;96327.91;;;5.31;68.67
14689;BME280;7432;48.728;9.154;2023-03-05T13:23:51;96330.59;;;5.29;68.08
14689;BME280;7432;48.728;9.154;2023-03-05T13:26:23;96326.44;;;5.38;68.22
14689;BME280;7432;48.728;9.154;2023-03-05T13:29:08;96326.19;;;5.51;67.88
14689;BME280;7432;48.728;9.154;2023-03-05T13:31:40;96326.59;;;5.46;66.75
14689;BME280;7432;48.728;9.154;2023-03-05T13:34:12;96325.25;;;5.52;67.65
14689;BME280;7432;48.728;9.154;2023-03-05T13:36:45;96316.50;;;5.45;65.74
14689;BME280;7432;48.728;9.154;2023-03-05T13:39:18;96321.38;;;5.57;66.51
14689;BME280;7432;48.728;9.154;2023-03-05T13:41:55;96312.34;;;5.53;66.69
14689;BME280;7432;48.728;9.154;2023-03-05T13:44:23;96311.13;;;5.67;66.44